sensor_id;sensor_type;location;lat;lon;timestamp;temperature;humidity
29777;DHT22;16677;52.224;7.484;2022-07-29T00:01:00;17.20;1.00
29777;DHT22;16677;52.224;7.484;2022-07-29T00:03:27;17.20;1.00
29777;DHT22;16677;52.224;7.484;2022-07-29T00:05:54;17.20;1.00
29777;DHT22;16677;52.224;7.484;2022-07-29T00:08:21;17.20;1.00
29777;DHT22;16677;52.224;7.484;2022-07-29T00:10:49;17.20;1.00
29777;DHT22;16677;52.224;7.484;2022-07-29T00:13:16;17.20;1.00
29777;DHT22;16677;52.224;7.484;2022-07-29T00:15:57;17.20;1.00
29777;DHT22;16677;52.224;7.484;2022-07-29T00:18:32;17.10;1.00
29777;DHT22;16677;52.224;7.484;2022-07-29T00:20:59;17.10;1.00
29777;DHT22;16677;52.224;7.484;2022-07-29T00:23:26;17.10;1.00
29777;DHT22;16677;52.224;7.484;2022-07-29T00:25:53;17.10;1.00
29777;DHT22;16677;52.224;7.484;2022-07-29T00:28:20;17.10;1.00
29777;DHT22;16677;52.224;7.484;2022-07-29T00:30:47;17.10;1.00
29777;DHT22;16677;52.224;7.484;2022-07-29T00:33:14;17.10;1.00
29777;DHT22;16677;52.224;7.484;2022-07-29T00:35:41;17.00;1.00
29777;DHT22;16677;52.224;7.484;2022-07-29T00:38:15;17.10;1.00
29777;DHT22;16677;52.224;7.484;2022-07-29T00:40:43;17.00;1.00
29777;DHT22;16677;52.224;7.484;2022-07-29T00:43:11;17.00;1.00
29777;DHT22;16677;52.224;7.484;2022-07-29T00:45:38;16.90;1.00
29777;DHT22;16677;52.224;7.484;2022-07-29T00:48:06;17.00;1.00
29777;DHT22;16677;52.224;7.484;2022-07-29T00:50:36;16.90;1.00
29777;DHT22;16677;52.224;7.484;2022-07-29T00:53:06;16.90;1.00
29777;DHT22;16677;52.224;7.484;2022-07-29T00:55:33;16.90;1.00
29777;DHT22;16677;52.224;7.484;2022-07-29T00:58:00;16.90;1.00
29777;DHT22;16677;52.224;7.484;2022-07-29T01:00:28;16.80;1.00
29777;DHT22;16677;52.224;7.484;2022-07-29T01:02:56;16.80;1.00
29777;DHT22;16677;52.224;7.484;2022-07-29T01:05:24;16.80;1.00
29777;DHT22;16677;52.224;7.484;2022-07-29T01:08:14;16.80;1.00
29777;DHT22;16677;52.224;7.484;2022-07-29T01:10:43;16.70;1.00
29777;DHT22;16677;52.224;7.484;2022-07-29T01:13:11;16.70;1.00
29777;DHT22;16677;52.224;7.484;2022-07-29T01:15:44;16.70;1.00
29777;DHT22;16677;52.224;7.484;2022-07-29T01:18:24;16.70;1.00
29777;DHT22;16677;52.224;7.484;2022-07-29T01:29:32;16.60;1.00
29777;DHT22;16677;52.224;7.484;2022-07-29T01:32:11;16.50;1.00
29777;DHT22;16677;52.224;7.484;2022-07-29T01:35:21;16.50;1.00
29777;DHT22;16677;52.224;7.484;2022-07-29T01:38:05;16.50;1.00
29777;DHT22;16677;52.224;7.484;2022-07-29T01:40:52;16.50;1.00
29777;DHT22;16677;52.224;7.484;2022-07-29T01:43:31;16.50;1.00
29777;DHT22;16677;52.224;7.484;2022-07-29T01:46:05;16.50;1.00
29777;DHT22;16677;52.224;7.484;2022-07-29T01:48:48;16.50;1.00
29777;DHT22;16677;52.224;7.484;2022-07-29T01:51:41;16.40;1.00
29777;DHT22;16677;52.224;7.484;2022-07-29T01:54:34;16.40;1.00
29777;DHT22;16677;52.224;7.484;2022-07-29T01:57:03;16.40;1.00
29777;DHT22;16677;52.224;7.484;2022-07-29T01:59:34;16.40;1.00
29777;DHT22;16677;52.224;7.484;2022-07-29T02:02:02;16.30;1.00
29777;DHT22;16677;52.224;7.484;2022-07-29T02:04:32;16.40;1.00
29777;DHT22;16677;52.224;7.484;2022-07-29T02:07:07;16.30;1.00
29777;DHT22;16677;52.224;7.484;2022-07-29T02:09:38;16.30;1.00
29777;DHT22;16677;52.224;7.484;2022-07-29T02:12:07;16.30;1.00
29777;DHT22;16677;52.224;7.484;2022-07-29T02:14:38;16.30;1.00
29777;DHT22;16677;52.224;7.484;2022-07-29T02:17:06;16.30;1.00
29777;DHT22;16677;52.224;7.484;2022-07-29T02:19:37;16.20;1.00
29777;DHT22;16677;52.224;7.484;2022-07-29T02:22:06;16.20;1.00
29777;DHT22;16677;52.224;7.484;2022-07-29T02:24:36;16.20;1.00
29777;DHT22;16677;52.224;7.484;2022-07-29T02:27:04;16.10;1.00
29777;DHT22;16677;52.224;7.484;2022-07-29T02:29:32;16.10;1.00
29777;DHT22;16677;52.224;7.484;2022-07-29T02:32:01;16.10;1.00
29777;DHT22;16677;52.224;7.484;2022-07-29T02:34:29;16.10;1.00
29777;DHT22;16677;52.224;7.484;2022-07-29T02:36:57;16.10;1.00
29777;DHT22;16677;52.224;7.484;2022-07-29T02:39:26;16.10;1.00
29777;DHT22;16677;52.224;7.484;2022-07-29T02:42:03;16.10;1.00
29777;DHT22;16677;52.224;7.484;2022-07-29T02:44:32;16.10;1.00
29777;DHT22;16677;52.224;7.484;2022-07-29T02:47:39;16.00;1.00
29777;DHT22;16677;52.224;7.484;2022-07-29T02:52:41;16.00;1.00
29777;DHT22;16677;52.224;7.484;2022-07-29T02:55:25;15.90;1.00
29777;DHT22;16677;52.224;7.484;2022-07-29T02:58:05;16.00;1.00
29777;DHT22;16677;52.224;7.484;2022-07-29T03:00:37;15.90;1.00
29777;DHT22;16677;52.224;7.484;2022-07-29T03:03:11;15.90;1.00
29777;DHT22;16677;52.224;7.484;2022-07-29T03:05:39;15.90;1.00
29777;DHT22;16677;52.224;7.484;2022-07-29T03:08:09;16.00;1.00
29777;DHT22;16677;52.224;7.484;2022-07-29T03:10:39;15.90;1.00
29777;DHT22;16677;52.224;7.484;2022-07-29T03:13:07;15.90;1.00
29777;DHT22;16677;52.224;7.484;2022-07-29T03:15:37;15.80;1.00
29777;DHT22;16677;52.224;7.484;2022-07-29T03:18:05;15.70;1.00
29777;DHT22;16677;52.224;7.484;2022-07-29T03:20:33;15.80;1.00
29777;DHT22;16677;52.224;7.484;2022-07-29T03:23:00;15.80;1.00
29777;DHT22;16677;52.224;7.484;2022-07-29T03:25:27;15.70;1.00
29777;DHT22;16677;52.224;7.484;2022-07-29T03:27:54;15.70;1.00
29777;DHT22;16677;52.224;7.484;2022-07-29T03:30:21;15.70;1.00
29777;DHT22;16677;52.224;7.484;2022-07-29T03:32:50;15.70;1.00
29777;DHT22;16677;52.224;7.484;2022-07-29T03:35:21;15.70;1.00
29777;DHT22;16677;52.224;7.484;2022-07-29T03:37:48;15.70;1.00
29777;DHT22;16677;52.224;7.484;2022-07-29T03:43:03;15.70;1.00
29777;DHT22;16677;52.224;7.484;2022-07-29T03:45:32;15.70;1.00
29777;DHT22;16677;52.224;7.484;2022-07-29T03:48:09;15.70;1.00
29777;DHT22;16677;52.224;7.484;2022-07-29T03:50:37;15.70;1.00
29777;DHT22;16677;52.224;7.484;2022-07-29T03:53:04;15.60;1.00
29777;DHT22;16677;52.224;7.484;2022-07-29T03:55:36;15.50;1.00
29777;DHT22;16677;52.224;7.484;2022-07-29T03:58:04;15.50;1.00
29777;DHT22;16677;52.224;7.484;2022-07-29T04:00:34;15.50;1.00
29777;DHT22;16677;52.224;7.484;2022-07-29T04:03:02;15.40;1.00
29777;DHT22;16677;52.224;7.484;2022-07-29T04:05:36;15.50;1.00
29777;DHT22;16677;52.224;7.484;2022-07-29T04:08:03;15.40;1.00
29777;DHT22;16677;52.224;7.484;2022-07-29T04:10:30;15.40;1.00
29777;DHT22;16677;52.224;7.484;2022-07-29T04:13:01;15.40;1.00
29777;DHT22;16677;52.224;7.484;2022-07-29T04:15:28;15.40;1.00
29777;DHT22;16677;52.224;7.484;2022-07-29T04:17:57;15.40;1.00
29777;DHT22;16677;52.224;7.484;2022-07-29T04:20:24;15.30;1.00
29777;DHT22;16677;52.224;7.484;2022-07-29T04:22:52;15.20;1.00
29777;DHT22;16677;52.224;7.484;2022-07-29T04:25:19;15.30;1.00
29777;DHT22;16677;52.224;7.484;2022-07-29T04:27:46;15.20;1.00
29777;DHT22;16677;52.224;7.484;2022-07-29T04:30:35;15.30;1.00
29777;DHT22;16677;52.224;7.484;2022-07-29T04:33:03;15.30;1.00
29777;DHT22;16677;52.224;7.484;2022-07-29T04:35:33;15.30;1.00
29777;DHT22;16677;52.224;7.484;2022-07-29T04:38:05;15.30;1.00
29777;DHT22;16677;52.224;7.484;2022-07-29T04:40:33;15.30;1.00
29777;DHT22;16677;52.224;7.484;2022-07-29T04:43:04;15.40;1.00
29777;DHT22;16677;52.224;7.484;2022-07-29T04:45:31;15.50;1.00
29777;DHT22;16677;52.224;7.484;2022-07-29T04:47:58;15.50;1.00
29777;DHT22;16677;52.224;7.484;2022-07-29T04:50:25;15.60;1.00
29777;DHT22;16677;52.224;7.484;2022-07-29T04:52:52;15.60;1.00
29777;DHT22;16677;52.224;7.484;2022-07-29T04:55:19;15.60;1.00
29777;DHT22;16677;52.224;7.484;2022-07-29T04:57:46;15.60;1.00
29777;DHT22;16677;52.224;7.484;2022-07-29T05:00:13;15.60;1.00
29777;DHT22;16677;52.224;7.484;2022-07-29T05:02:40;15.60;1.00
29777;DHT22;16677;52.224;7.484;2022-07-29T05:05:08;15.50;1.00
29777;DHT22;16677;52.224;7.484;2022-07-29T05:07:35;15.50;1.00
29777;DHT22;16677;52.224;7.484;2022-07-29T05:10:03;15.60;1.00
29777;DHT22;16677;52.224;7.484;2022-07-29T05:12:30;15.70;1.00
29777;DHT22;16677;52.224;7.484;2022-07-29T05:14:57;15.70;1.00
29777;DHT22;16677;52.224;7.484;2022-07-29T05:17:23;15.80;1.00
29777;DHT22;16677;52.224;7.484;2022-07-29T05:19:51;15.80;1.00
29777;DHT22;16677;52.224;7.484;2022-07-29T05:22:19;15.90;1.00
29777;DHT22;16677;52.224;7.484;2022-07-29T05:24:46;16.10;1.00
29777;DHT22;16677;52.224;7.484;2022-07-29T05:27:13;16.10;1.00
29777;DHT22;16677;52.224;7.484;2022-07-29T05:29:40;16.10;1.00
29777;DHT22;16677;52.224;7.484;2022-07-29T05:32:14;16.20;1.00
29777;DHT22;16677;52.224;7.484;2022-07-29T05:34:41;16.50;1.00
29777;DHT22;16677;52.224;7.484;2022-07-29T05:37:18;16.60;1.00
29777;DHT22;16677;52.224;7.484;2022-07-29T05:39:45;16.70;1.00
29777;DHT22;16677;52.224;7.484;2022-07-29T05:42:16;16.60;1.00
29777;DHT22;16677;52.224;7.484;2022-07-29T05:44:43;16.60;1.00
29777;DHT22;16677;52.224;7.484;2022-07-29T05:47:10;16.70;1.00
29777;DHT22;16677;52.224;7.484;2022-07-29T05:49:37;16.70;1.00
29777;DHT22;16677;52.224;7.484;2022-07-29T05:52:04;16.70;1.00
29777;DHT22;16677;52.224;7.484;2022-07-29T05:54:31;16.80;1.00
29777;DHT22;16677;52.224;7.484;2022-07-29T05:56:58;16.80;1.00
29777;DHT22;16677;52.224;7.484;2022-07-29T05:59:25;16.90;1.00
29777;DHT22;16677;52.224;7.484;2022-07-29T06:01:56;16.90;1.00
29777;DHT22;16677;52.224;7.484;2022-07-29T06:04:24;17.00;1.00
29777;DHT22;16677;52.224;7.484;2022-07-29T06:06:51;17.10;1.00
29777;DHT22;16677;52.224;7.484;2022-07-29T06:09:18;17.30;1.00
29777;DHT22;16677;52.224;7.484;2022-07-29T06:11:45;17.50;1.00
29777;DHT22;16677;52.224;7.484;2022-07-29T06:14:12;17.50;1.00
29777;DHT22;16677;52.224;7.484;2022-07-29T06:16:40;17.50;1.00
29777;DHT22;16677;52.224;7.484;2022-07-29T06:19:07;17.60;1.00
29777;DHT22;16677;52.224;7.484;2022-07-29T06:21:35;17.50;1.00
29777;DHT22;16677;52.224;7.484;2022-07-29T06:24:07;17.60;1.00
29777;DHT22;16677;52.224;7.484;2022-07-29T06:26:34;17.70;1.00
29777;DHT22;16677;52.224;7.484;2022-07-29T06:29:06;17.70;1.00
29777;DHT22;16677;52.224;7.484;2022-07-29T06:31:33;17.80;1.00
29777;DHT22;16677;52.224;7.484;2022-07-29T06:34:00;17.70;1.00
29777;DHT22;16677;52.224;7.484;2022-07-29T06:36:29;17.40;1.00
29777;DHT22;16677;52.224;7.484;2022-07-29T06:38:56;17.10;1.00
29777;DHT22;16677;52.224;7.484;2022-07-29T06:41:23;16.90;1.00
29777;DHT22;16677;52.224;7.484;2022-07-29T06:43:50;17.00;1.00
29777;DHT22;16677;52.224;7.484;2022-07-29T06:46:22;17.10;1.00
29777;DHT22;16677;52.224;7.484;2022-07-29T06:48:50;17.10;1.00
29777;DHT22;16677;52.224;7.484;2022-07-29T06:51:19;17.20;1.00
29777;DHT22;16677;52.224;7.484;2022-07-29T06:53:50;17.20;1.00
29777;DHT22;16677;52.224;7.484;2022-07-29T06:56:37;17.10;1.00
29777;DHT22;16677;52.224;7.484;2022-07-29T06:59:07;17.40;1.00
29777;DHT22;16677;52.224;7.484;2022-07-29T07:01:38;17.50;1.00
29777;DHT22;16677;52.224;7.484;2022-07-29T07:04:06;17.60;1.00
29777;DHT22;16677;52.224;7.484;2022-07-29T07:06:35;17.70;1.00
29777;DHT22;16677;52.224;7.484;2022-07-29T07:09:02;17.70;1.00
29777;DHT22;16677;52.224;7.484;2022-07-29T07:11:29;17.80;1.00
29777;DHT22;16677;52.224;7.484;2022-07-29T07:13:56;17.60;1.00
29777;DHT22;16677;52.224;7.484;2022-07-29T07:16:29;17.70;1.00
29777;DHT22;16677;52.224;7.484;2022-07-29T07:18:56;17.90;1.00
29777;DHT22;16677;52.224;7.484;2022-07-29T07:21:23;18.00;1.00
29777;DHT22;16677;52.224;7.484;2022-07-29T07:23:50;17.90;1.00
29777;DHT22;16677;52.224;7.484;2022-07-29T07:26:17;17.90;1.00
29777;DHT22;16677;52.224;7.484;2022-07-29T07:28:44;17.70;1.00
29777;DHT22;16677;52.224;7.484;2022-07-29T07:31:11;17.80;1.00
29777;DHT22;16677;52.224;7.484;2022-07-29T07:33:38;18.00;1.00
29777;DHT22;16677;52.224;7.484;2022-07-29T07:36:05;18.00;1.00
29777;DHT22;16677;52.224;7.484;2022-07-29T07:38:33;17.90;1.00
29777;DHT22;16677;52.224;7.484;2022-07-29T07:41:00;17.90;1.00
29777;DHT22;16677;52.224;7.484;2022-07-29T07:43:28;17.90;1.00
29777;DHT22;16677;52.224;7.484;2022-07-29T07:45:55;17.80;1.00
29777;DHT22;16677;52.224;7.484;2022-07-29T07:48:22;17.80;1.00
29777;DHT22;16677;52.224;7.484;2022-07-29T07:50:49;17.80;1.00
29777;DHT22;16677;52.224;7.484;2022-07-29T07:53:17;17.80;1.00
29777;DHT22;16677;52.224;7.484;2022-07-29T07:55:44;17.80;1.00
29777;DHT22;16677;52.224;7.484;2022-07-29T07:58:31;17.70;1.00
29777;DHT22;16677;52.224;7.484;2022-07-29T08:00:58;17.90;1.00
29777;DHT22;16677;52.224;7.484;2022-07-29T08:03:25;18.10;1.00
29777;DHT22;16677;52.224;7.484;2022-07-29T08:05:52;18.20;1.00
29777;DHT22;16677;52.224;7.484;2022-07-29T08:08:21;18.40;1.00
29777;DHT22;16677;52.224;7.484;2022-07-29T08:10:48;18.40;1.00
29777;DHT22;16677;52.224;7.484;2022-07-29T08:13:24;18.20;1.00
29777;DHT22;16677;52.224;7.484;2022-07-29T08:15:53;18.20;1.00
29777;DHT22;16677;52.224;7.484;2022-07-29T08:18:29;18.40;1.00
29777;DHT22;16677;52.224;7.484;2022-07-29T08:20:57;18.40;1.00
29777;DHT22;16677;52.224;7.484;2022-07-29T08:23:24;18.50;1.00
29777;DHT22;16677;52.224;7.484;2022-07-29T08:26:13;18.60;1.00
29777;DHT22;16677;52.224;7.484;2022-07-29T08:28:42;18.70;1.00
29777;DHT22;16677;52.224;7.484;2022-07-29T08:31:13;18.80;1.00
29777;DHT22;16677;52.224;7.484;2022-07-29T08:33:41;18.80;1.00
29777;DHT22;16677;52.224;7.484;2022-07-29T08:36:08;18.90;1.00
29777;DHT22;16677;52.224;7.484;2022-07-29T08:38:35;18.80;1.00
29777;DHT22;16677;52.224;7.484;2022-07-29T08:41:02;18.80;1.00
29777;DHT22;16677;52.224;7.484;2022-07-29T08:43:29;18.70;1.00
29777;DHT22;16677;52.224;7.484;2022-07-29T08:45:56;18.70;1.00
29777;DHT22;16677;52.224;7.484;2022-07-29T08:48:23;18.70;1.00
29777;DHT22;16677;52.224;7.484;2022-07-29T08:50:55;18.70;1.00
29777;DHT22;16677;52.224;7.484;2022-07-29T08:53:26;18.90;1.00
29777;DHT22;16677;52.224;7.484;2022-07-29T08:55:54;18.90;1.00
29777;DHT22;16677;52.224;7.484;2022-07-29T08:58:21;18.90;1.00
29777;DHT22;16677;52.224;7.484;2022-07-29T09:00:52;19.10;1.00
29777;DHT22;16677;52.224;7.484;2022-07-29T09:03:23;19.20;1.00
29777;DHT22;16677;52.224;7.484;2022-07-29T09:05:51;19.10;1.00
29777;DHT22;16677;52.224;7.484;2022-07-29T09:08:19;19.00;1.00
29777;DHT22;16677;52.224;7.484;2022-07-29T09:10:47;19.00;1.00
29777;DHT22;16677;52.224;7.484;2022-07-29T09:13:14;18.90;1.00
29777;DHT22;16677;52.224;7.484;2022-07-29T09:15:41;18.80;1.00
29777;DHT22;16677;52.224;7.484;2022-07-29T09:18:08;18.90;1.00
29777;DHT22;16677;52.224;7.484;2022-07-29T09:20:55;19.00;1.00
29777;DHT22;16677;52.224;7.484;2022-07-29T09:23:40;19.10;1.00
29777;DHT22;16677;52.224;7.484;2022-07-29T09:26:08;19.20;1.00
29777;DHT22;16677;52.224;7.484;2022-07-29T09:28:41;19.30;1.00
29777;DHT22;16677;52.224;7.484;2022-07-29T09:31:09;19.40;1.00
29777;DHT22;16677;52.224;7.484;2022-07-29T09:33:35;19.30;1.00
29777;DHT22;16677;52.224;7.484;2022-07-29T09:36:08;19.40;1.00
29777;DHT22;16677;52.224;7.484;2022-07-29T09:38:36;19.30;1.00
29777;DHT22;16677;52.224;7.484;2022-07-29T09:41:05;19.30;1.00
29777;DHT22;16677;52.224;7.484;2022-07-29T09:43:34;19.50;1.00
29777;DHT22;16677;52.224;7.484;2022-07-29T09:46:13;19.40;1.00
29777;DHT22;16677;52.224;7.484;2022-07-29T09:48:41;19.50;1.00
29777;DHT22;16677;52.224;7.484;2022-07-29T09:51:18;19.30;1.00
29777;DHT22;16677;52.224;7.484;2022-07-29T09:53:53;19.20;1.00
29777;DHT22;16677;52.224;7.484;2022-07-29T09:56:41;19.20;1.00
29777;DHT22;16677;52.224;7.484;2022-07-29T09:59:09;19.30;1.00
29777;DHT22;16677;52.224;7.484;2022-07-29T10:01:37;19.10;1.00
29777;DHT22;16677;52.224;7.484;2022-07-29T10:04:04;19.20;1.00
29777;DHT22;16677;52.224;7.484;2022-07-29T10:06:31;19.30;1.00
29777;DHT22;16677;52.224;7.484;2022-07-29T10:09:09;19.30;1.00
29777;DHT22;16677;52.224;7.484;2022-07-29T10:11:36;19.20;1.00
29777;DHT22;16677;52.224;7.484;2022-07-29T10:14:15;19.10;1.00
29777;DHT22;16677;52.224;7.484;2022-07-29T10:16:43;19.00;1.00
29777;DHT22;16677;52.224;7.484;2022-07-29T10:19:10;19.10;1.00
29777;DHT22;16677;52.224;7.484;2022-07-29T10:21:37;19.10;1.00
29777;DHT22;16677;52.224;7.484;2022-07-29T10:24:06;19.00;1.00
29777;DHT22;16677;52.224;7.484;2022-07-29T10:26:41;19.10;1.00
29777;DHT22;16677;52.224;7.484;2022-07-29T10:29:08;19.00;1.00
29777;DHT22;16677;52.224;7.484;2022-07-29T10:31:48;19.00;1.00
29777;DHT22;16677;52.224;7.484;2022-07-29T10:43:27;18.80;1.00
29777;DHT22;16677;52.224;7.484;2022-07-29T10:45:57;18.90;1.00
29777;DHT22;16677;52.224;7.484;2022-07-29T10:48:24;18.90;1.00
29777;DHT22;16677;52.224;7.484;2022-07-29T10:50:53;19.00;1.00
29777;DHT22;16677;52.224;7.484;2022-07-29T10:53:23;18.90;1.00
29777;DHT22;16677;52.224;7.484;2022-07-29T10:55:53;19.10;1.00
29777;DHT22;16677;52.224;7.484;2022-07-29T10:58:23;19.20;1.00
29777;DHT22;16677;52.224;7.484;2022-07-29T11:00:52;19.20;1.00
29777;DHT22;16677;52.224;7.484;2022-07-29T11:03:45;19.30;1.00
29777;DHT22;16677;52.224;7.484;2022-07-29T11:07:10;19.30;1.00
29777;DHT22;16677;52.224;7.484;2022-07-29T11:09:37;19.40;1.00
29777;DHT22;16677;52.224;7.484;2022-07-29T11:15:12;19.00;1.00
29777;DHT22;16677;52.224;7.484;2022-07-29T11:20:42;19.00;1.00
29777;DHT22;16677;52.224;7.484;2022-07-29T11:23:22;19.10;1.00
29777;DHT22;16677;52.224;7.484;2022-07-29T11:26:20;18.90;1.00
29777;DHT22;16677;52.224;7.484;2022-07-29T11:28:54;18.90;1.00
29777;DHT22;16677;52.224;7.484;2022-07-29T11:31:33;19.00;1.00
29777;DHT22;16677;52.224;7.484;2022-07-29T11:34:25;19.00;1.00
29777;DHT22;16677;52.224;7.484;2022-07-29T11:45:20;18.90;1.00
29777;DHT22;16677;52.224;7.484;2022-07-29T11:48:07;19.00;1.00
29777;DHT22;16677;52.224;7.484;2022-07-29T11:50:57;19.20;1.00
29777;DHT22;16677;52.224;7.484;2022-07-29T11:53:25;19.20;1.00
29777;DHT22;16677;52.224;7.484;2022-07-29T11:55:59;19.10;1.00
29777;DHT22;16677;52.224;7.484;2022-07-29T11:58:27;19.20;1.00
29777;DHT22;16677;52.224;7.484;2022-07-29T12:00:55;19.20;1.00
29777;DHT22;16677;52.224;7.484;2022-07-29T12:03:25;19.40;1.00
29777;DHT22;16677;52.224;7.484;2022-07-29T12:06:11;19.50;1.00
29777;DHT22;16677;52.224;7.484;2022-07-29T12:08:42;19.50;1.00
29777;DHT22;16677;52.224;7.484;2022-07-29T12:11:19;19.50;1.00
29777;DHT22;16677;52.224;7.484;2022-07-29T12:13:50;19.50;1.00
29777;DHT22;16677;52.224;7.484;2022-07-29T12:16:19;19.50;1.00
29777;DHT22;16677;52.224;7.484;2022-07-29T12:18:58;19.50;1.00
29777;DHT22;16677;52.224;7.484;2022-07-29T12:24:22;19.50;1.00
29777;DHT22;16677;52.224;7.484;2022-07-29T12:26:59;19.60;1.00
29777;DHT22;16677;52.224;7.484;2022-07-29T12:29:28;19.80;1.00
29777;DHT22;16677;52.224;7.484;2022-07-29T12:32:02;19.70;1.00
29777;DHT22;16677;52.224;7.484;2022-07-29T12:34:30;19.80;1.00
29777;DHT22;16677;52.224;7.484;2022-07-29T12:36:57;20.00;1.00
29777;DHT22;16677;52.224;7.484;2022-07-29T12:39:24;20.00;1.00
29777;DHT22;16677;52.224;7.484;2022-07-29T12:41:54;20.30;1.00
29777;DHT22;16677;52.224;7.484;2022-07-29T12:44:50;20.40;1.00
29777;DHT22;16677;52.224;7.484;2022-07-29T12:47:18;20.60;1.00
29777;DHT22;16677;52.224;7.484;2022-07-29T12:49:46;20.80;1.00
29777;DHT22;16677;52.224;7.484;2022-07-29T12:52:31;20.80;1.00
29777;DHT22;16677;52.224;7.484;2022-07-29T12:54:58;20.90;1.00
29777;DHT22;16677;52.224;7.484;2022-07-29T12:57:25;20.90;1.00
29777;DHT22;16677;52.224;7.484;2022-07-29T13:00:07;21.00;1.00
29777;DHT22;16677;52.224;7.484;2022-07-29T13:02:35;21.10;1.00
29777;DHT22;16677;52.224;7.484;2022-07-29T13:05:04;21.30;1.00
29777;DHT22;16677;52.224;7.484;2022-07-29T13:07:32;21.40;1.00
29777;DHT22;16677;52.224;7.484;2022-07-29T13:10:21;21.20;1.00
29777;DHT22;16677;52.224;7.484;2022-07-29T13:13:09;21.10;1.00
29777;DHT22;16677;52.224;7.484;2022-07-29T13:15:43;21.00;1.00
29777;DHT22;16677;52.224;7.484;2022-07-29T13:18:34;21.00;1.00
29777;DHT22;16677;52.224;7.484;2022-07-29T13:21:13;20.90;1.00
29777;DHT22;16677;52.224;7.484;2022-07-29T13:23:41;20.70;1.00
29777;DHT22;16677;52.224;7.484;2022-07-29T13:26:09;20.60;1.00
29777;DHT22;16677;52.224;7.484;2022-07-29T13:28:36;20.30;1.00
29777;DHT22;16677;52.224;7.484;2022-07-29T13:31:05;20.30;1.00
29777;DHT22;16677;52.224;7.484;2022-07-29T13:33:32;20.30;1.00
29777;DHT22;16677;52.224;7.484;2022-07-29T13:35:59;20.30;1.00
29777;DHT22;16677;52.224;7.484;2022-07-29T13:38:25;20.30;1.00
29777;DHT22;16677;52.224;7.484;2022-07-29T13:40:57;20.40;1.00
29777;DHT22;16677;52.224;7.484;2022-07-29T13:43:24;20.30;1.00
29777;DHT22;16677;52.224;7.484;2022-07-29T13:45:51;20.40;1.00
29777;DHT22;16677;52.224;7.484;2022-07-29T13:48:18;20.50;1.00
29777;DHT22;16677;52.224;7.484;2022-07-29T13:50:45;20.50;1.00
29777;DHT22;16677;52.224;7.484;2022-07-29T13:53:13;20.60;1.00
29777;DHT22;16677;52.224;7.484;2022-07-29T13:55:43;20.60;1.00
29777;DHT22;16677;52.224;7.484;2022-07-29T13:58:10;20.60;1.00
29777;DHT22;16677;52.224;7.484;2022-07-29T14:00:37;20.70;1.00
29777;DHT22;16677;52.224;7.484;2022-07-29T14:03:04;20.80;1.00
29777;DHT22;16677;52.224;7.484;2022-07-29T14:05:33;20.80;1.00
29777;DHT22;16677;52.224;7.484;2022-07-29T14:07:59;20.80;1.00
29777;DHT22;16677;52.224;7.484;2022-07-29T14:10:26;20.80;1.00
29777;DHT22;16677;52.224;7.484;2022-07-29T14:12:53;20.80;1.00
29777;DHT22;16677;52.224;7.484;2022-07-29T14:15:20;21.20;1.00
29777;DHT22;16677;52.224;7.484;2022-07-29T14:17:47;21.70;1.00
29777;DHT22;16677;52.224;7.484;2022-07-29T14:20:14;21.80;1.00
29777;DHT22;16677;52.224;7.484;2022-07-29T14:22:42;22.50;1.00
29777;DHT22;16677;52.224;7.484;2022-07-29T14:25:10;22.90;1.00
29777;DHT22;16677;52.224;7.484;2022-07-29T14:27:40;23.60;1.00
29777;DHT22;16677;52.224;7.484;2022-07-29T14:30:07;23.80;1.00
29777;DHT22;16677;52.224;7.484;2022-07-29T14:32:34;23.60;1.00
29777;DHT22;16677;52.224;7.484;2022-07-29T14:35:01;23.70;1.00
29777;DHT22;16677;52.224;7.484;2022-07-29T14:37:28;24.20;1.00
29777;DHT22;16677;52.224;7.484;2022-07-29T14:40:06;24.10;1.00
29777;DHT22;16677;52.224;7.484;2022-07-29T14:42:33;24.10;1.00
29777;DHT22;16677;52.224;7.484;2022-07-29T14:45:00;24.10;1.00
29777;DHT22;16677;52.224;7.484;2022-07-29T14:47:27;23.90;1.00
29777;DHT22;16677;52.224;7.484;2022-07-29T14:49:54;24.10;1.00
29777;DHT22;16677;52.224;7.484;2022-07-29T14:52:21;24.50;1.00
29777;DHT22;16677;52.224;7.484;2022-07-29T14:54:48;24.50;1.00
29777;DHT22;16677;52.224;7.484;2022-07-29T14:57:15;24.70;1.00
29777;DHT22;16677;52.224;7.484;2022-07-29T14:59:43;24.60;1.00
29777;DHT22;16677;52.224;7.484;2022-07-29T15:02:10;24.10;1.00
29777;DHT22;16677;52.224;7.484;2022-07-29T15:04:38;24.10;1.00
29777;DHT22;16677;52.224;7.484;2022-07-29T15:07:05;23.90;1.00
29777;DHT22;16677;52.224;7.484;2022-07-29T15:09:32;23.80;1.00
29777;DHT22;16677;52.224;7.484;2022-07-29T15:12:06;23.80;1.00
29777;DHT22;16677;52.224;7.484;2022-07-29T15:14:33;23.90;1.00
29777;DHT22;16677;52.224;7.484;2022-07-29T15:17:00;24.00;1.00
29777;DHT22;16677;52.224;7.484;2022-07-29T15:19:30;23.90;1.00
29777;DHT22;16677;52.224;7.484;2022-07-29T15:21:57;23.80;1.00
29777;DHT22;16677;52.224;7.484;2022-07-29T15:24:25;23.90;1.00
29777;DHT22;16677;52.224;7.484;2022-07-29T15:26:53;24.00;1.00
29777;DHT22;16677;52.224;7.484;2022-07-29T15:29:20;24.20;1.00
29777;DHT22;16677;52.224;7.484;2022-07-29T15:31:47;24.10;1.00
29777;DHT22;16677;52.224;7.484;2022-07-29T15:34:14;23.90;1.00
29777;DHT22;16677;52.224;7.484;2022-07-29T15:36:41;23.90;1.00
29777;DHT22;16677;52.224;7.484;2022-07-29T15:39:18;24.00;1.00
29777;DHT22;16677;52.224;7.484;2022-07-29T15:41:46;24.20;1.00
29777;DHT22;16677;52.224;7.484;2022-07-29T15:44:13;24.70;1.00
29777;DHT22;16677;52.224;7.484;2022-07-29T15:46:40;24.80;1.00
29777;DHT22;16677;52.224;7.484;2022-07-29T15:49:26;24.60;1.00
29777;DHT22;16677;52.224;7.484;2022-07-29T15:52:17;24.60;1.00
29777;DHT22;16677;52.224;7.484;2022-07-29T15:54:55;24.50;1.00
29777;DHT22;16677;52.224;7.484;2022-07-29T15:57:23;24.60;1.00
29777;DHT22;16677;52.224;7.484;2022-07-29T15:59:50;24.60;1.00
29777;DHT22;16677;52.224;7.484;2022-07-29T16:02:18;24.30;1.00
29777;DHT22;16677;52.224;7.484;2022-07-29T16:04:45;24.40;1.00
29777;DHT22;16677;52.224;7.484;2022-07-29T16:07:12;24.80;1.00
29777;DHT22;16677;52.224;7.484;2022-07-29T16:09:40;25.00;1.00
29777;DHT22;16677;52.224;7.484;2022-07-29T16:12:07;25.10;1.00
29777;DHT22;16677;52.224;7.484;2022-07-29T16:14:41;25.00;1.00
29777;DHT22;16677;52.224;7.484;2022-07-29T16:17:08;25.00;1.00
29777;DHT22;16677;52.224;7.484;2022-07-29T16:19:40;25.30;1.00
29777;DHT22;16677;52.224;7.484;2022-07-29T16:22:07;25.70;1.00
29777;DHT22;16677;52.224;7.484;2022-07-29T16:24:33;26.20;1.00
29777;DHT22;16677;52.224;7.484;2022-07-29T16:27:00;26.30;1.00
29777;DHT22;16677;52.224;7.484;2022-07-29T16:29:28;26.30;1.00
29777;DHT22;16677;52.224;7.484;2022-07-29T16:31:54;26.20;1.00
29777;DHT22;16677;52.224;7.484;2022-07-29T16:34:22;26.10;1.00
29777;DHT22;16677;52.224;7.484;2022-07-29T16:36:48;26.20;1.00
29777;DHT22;16677;52.224;7.484;2022-07-29T16:52:38;27.40;1.00
29777;DHT22;16677;52.224;7.484;2022-07-29T16:55:06;27.10;1.00
29777;DHT22;16677;52.224;7.484;2022-07-29T16:57:52;27.20;1.00
29777;DHT22;16677;52.224;7.484;2022-07-29T17:00:21;27.30;1.00